createdAt,value
2018-12-31T00:00:33.598Z,3.60
2018-12-31T00:03:04.132Z,3.20
2018-12-31T00:05:34.609Z,5.07
2018-12-31T00:08:04.975Z,3.73
2018-12-31T00:10:34.664Z,3.50
2018-12-31T00:13:05.046Z,4.07
2018-12-31T00:15:34.873Z,2.73
2018-12-31T00:18:04.980Z,3.50
2018-12-31T00:20:34.733Z,3.90
2018-12-31T00:23:05.076Z,3.43
2018-12-31T00:25:34.775Z,3.73
2018-12-31T00:28:04.987Z,4.57
2018-12-31T00:30:34.646Z,3.53
2018-12-31T00:33:04.852Z,3.43
2018-12-31T00:35:34.630Z,3.57
2018-12-31T00:38:04.960Z,2.87
2018-12-31T00:40:34.608Z,4.47
2018-12-31T00:43:04.853Z,3.73
2018-12-31T00:45:34.592Z,2.97
2018-12-31T00:48:04.993Z,4.37
2018-12-31T00:50:34.732Z,4.37
2018-12-31T00:53:04.964Z,3.07
2018-12-31T00:55:35.036Z,3.07
2018-12-31T00:58:04.873Z,3.77
2018-12-31T01:00:34.653Z,4.63
2018-12-31T01:03:04.967Z,5.83
2018-12-31T01:05:34.705Z,3.60
2018-12-31T01:08:04.893Z,3.40
2018-12-31T01:10:34.617Z,3.07
2018-12-31T01:13:05.132Z,3.10
2018-12-31T01:15:34.932Z,3.10
2018-12-31T01:18:04.817Z,3.83
2018-12-31T01:20:34.483Z,3.93
2018-12-31T01:23:04.944Z,3.07
2018-12-31T01:25:34.613Z,2.97
2018-12-31T01:28:05.424Z,3.53
2018-12-31T01:30:35.354Z,3.30
2018-12-31T01:33:05.087Z,2.73
2018-12-31T01:35:34.759Z,3.10
2018-12-31T01:38:04.994Z,3.57
2018-12-31T01:40:34.688Z,3.90
2018-12-31T01:43:04.831Z,3.57
2018-12-31T01:45:34.588Z,3.60
2018-12-31T01:48:04.929Z,3.73
2018-12-31T01:50:34.618Z,2.90
2018-12-31T01:53:04.893Z,3.20
2018-12-31T01:55:34.594Z,3.40
2018-12-31T01:58:04.856Z,3.77
2018-12-31T02:00:34.591Z,3.50
2018-12-31T02:03:04.857Z,3.20
2018-12-31T02:05:34.557Z,2.90
2018-12-31T02:08:04.989Z,3.73
2018-12-31T02:10:34.687Z,3.43
2018-12-31T02:13:04.930Z,3.40
2018-12-31T02:15:35.120Z,4.90
2018-12-31T02:18:04.824Z,3.17
2018-12-31T02:20:34.453Z,5.00
2018-12-31T02:23:07.722Z,5.73
2018-12-31T02:25:37.368Z,7.07
2018-12-31T02:28:07.173Z,7.83
2018-12-31T02:30:36.861Z,7.00
2018-12-31T02:33:06.562Z,6.33
2018-12-31T02:35:36.204Z,5.93
2018-12-31T02:38:05.891Z,5.30
2018-12-31T02:40:35.698Z,8.40
2018-12-31T02:43:05.382Z,4.10
2018-12-31T02:45:35.045Z,4.83
2018-12-31T02:48:04.845Z,5.27
2018-12-31T02:50:34.481Z,5.70
2018-12-31T02:53:04.793Z,7.90
2018-12-31T02:55:34.421Z,8.13
2018-12-31T02:58:05.142Z,6.00
2018-12-31T03:00:34.833Z,5.97
2018-12-31T03:03:04.971Z,4.97
2018-12-31T03:05:34.657Z,5.27
2018-12-31T03:08:04.978Z,5.80
2018-12-31T03:10:34.601Z,5.67
2018-12-31T03:13:04.937Z,5.10
2018-12-31T03:15:34.600Z,4.67
2018-12-31T03:18:04.950Z,4.97
2018-12-31T03:20:34.548Z,4.70
2018-12-31T03:23:04.886Z,4.47
2018-12-31T03:25:34.620Z,4.47
2018-12-31T03:28:04.829Z,4.87
2018-12-31T03:30:34.537Z,4.97
2018-12-31T03:33:04.868Z,5.50
2018-12-31T03:35:34.540Z,5.00
2018-12-31T03:38:04.973Z,5.67
2018-12-31T03:40:34.606Z,5.33
2018-12-31T03:43:04.826Z,6.00
2018-12-31T03:45:34.511Z,5.50
2018-12-31T03:48:04.852Z,5.83
2018-12-31T03:50:34.549Z,5.70
2018-12-31T03:53:04.780Z,6.73
2018-12-31T03:55:34.501Z,7.47
2018-12-31T03:58:04.933Z,5.43
2018-12-31T04:00:34.944Z,6.70
2018-12-31T04:03:05.368Z,6.60
2018-12-31T04:05:35.060Z,6.07
2018-12-31T04:08:04.973Z,6.87
2018-12-31T04:10:34.700Z,6.40
2018-12-31T04:13:04.804Z,7.23
2018-12-31T04:15:34.432Z,6.40
2018-12-31T04:18:04.875Z,7.47
2018-12-31T04:20:34.630Z,7.27
2018-12-31T04:23:04.746Z,7.40
2018-12-31T04:25:34.468Z,6.40
2018-12-31T04:28:05.074Z,6.80
2018-12-31T04:30:34.802Z,6.73
2018-12-31T04:33:04.942Z,6.80
2018-12-31T04:35:34.848Z,6.53
2018-12-31T04:38:05.077Z,6.73
2018-12-31T04:40:34.801Z,7.10
2018-12-31T04:43:05.540Z,8.20
2018-12-31T04:45:35.242Z,6.57
2018-12-31T04:48:04.854Z,7.10
2018-12-31T04:50:34.553Z,9.63
2018-12-31T04:53:04.808Z,6.87
2018-12-31T04:55:34.766Z,7.40
2018-12-31T04:58:04.859Z,7.90
2018-12-31T05:00:34.542Z,7.63
2018-12-31T05:03:04.853Z,8.20
2018-12-31T05:05:34.549Z,7.77
2018-12-31T05:08:04.861Z,8.77
2018-12-31T05:10:34.499Z,7.93
2018-12-31T05:13:05.224Z,7.83
2018-12-31T05:15:34.830Z,7.03
2018-12-31T05:18:04.842Z,7.53
2018-12-31T05:20:34.449Z,7.53
2018-12-31T05:23:05.593Z,7.23
2018-12-31T05:25:35.470Z,7.20
2018-12-31T05:28:05.475Z,7.00
2018-12-31T05:30:35.140Z,7.23
2018-12-31T05:33:04.736Z,7.20
2018-12-31T05:35:34.367Z,8.80
2018-12-31T05:38:05.062Z,7.67
2018-12-31T05:40:34.730Z,7.57
2018-12-31T05:43:04.993Z,7.07
2018-12-31T05:45:34.820Z,6.90
2018-12-31T05:48:04.943Z,6.93
2018-12-31T05:50:34.540Z,7.23
2018-12-31T05:53:04.919Z,6.47
2018-12-31T05:55:34.585Z,6.97
2018-12-31T05:58:05.326Z,7.47
2018-12-31T06:00:36.195Z,7.40
2018-12-31T06:03:05.891Z,7.27
2018-12-31T06:05:35.620Z,6.90
2018-12-31T06:08:05.300Z,7.40
2018-12-31T06:10:34.990Z,7.23
2018-12-31T06:13:04.830Z,7.10
2018-12-31T06:15:34.499Z,6.80
2018-12-31T06:18:04.759Z,6.67
2018-12-31T06:20:34.490Z,6.47
2018-12-31T06:23:05.126Z,6.80
2018-12-31T06:25:34.825Z,6.50
2018-12-31T06:28:05.272Z,7.07
2018-12-31T06:30:34.909Z,6.67
2018-12-31T06:33:04.861Z,6.43
2018-12-31T06:35:34.551Z,7.37
2018-12-31T06:38:04.780Z,7.43
2018-12-31T06:40:34.488Z,7.53
2018-12-31T06:43:05.054Z,7.53
2018-12-31T06:45:34.716Z,7.30
2018-12-31T06:48:04.865Z,7.73
2018-12-31T06:50:34.545Z,7.27
2018-12-31T06:53:04.880Z,7.60
2018-12-31T06:55:34.582Z,7.40
2018-12-31T06:58:04.837Z,7.43
2018-12-31T07:00:34.510Z,8.17
2018-12-31T07:03:05.157Z,8.00
2018-12-31T07:05:35.050Z,8.50
2018-12-31T07:08:04.801Z,7.37
2018-12-31T07:10:34.472Z,7.63
2018-12-31T07:13:04.835Z,7.60
2018-12-31T07:15:34.517Z,8.27
2018-12-31T07:18:04.782Z,7.20
2018-12-31T07:20:34.565Z,7.57
2018-12-31T07:23:04.902Z,7.90
2018-12-31T07:25:34.586Z,7.50
2018-12-31T07:28:04.863Z,6.90
2018-12-31T07:30:34.541Z,7.70
2018-12-31T07:33:04.947Z,8.60
2018-12-31T07:35:34.567Z,7.87
2018-12-31T07:38:04.765Z,8.20
2018-12-31T07:40:34.403Z,8.87
2018-12-31T07:43:04.790Z,8.03
2018-12-31T07:45:34.433Z,7.90
2018-12-31T07:48:04.824Z,8.97
2018-12-31T07:50:34.531Z,8.57
2018-12-31T07:53:04.871Z,8.97
2018-12-31T07:55:34.498Z,9.20
2018-12-31T07:58:05.195Z,8.30
2018-12-31T08:00:34.850Z,8.53
2018-12-31T08:03:05.013Z,9.40
2018-12-31T08:05:34.755Z,10.03
2018-12-31T08:08:04.792Z,9.77
2018-12-31T08:10:35.404Z,9.70
2018-12-31T08:13:05.111Z,9.17
2018-12-31T08:15:34.732Z,9.57
2018-12-31T08:18:04.856Z,10.77
2018-12-31T08:20:34.669Z,9.57
2018-12-31T08:23:04.988Z,10.70
2018-12-31T08:25:34.692Z,11.03
2018-12-31T08:28:05.184Z,11.87
2018-12-31T08:30:34.865Z,12.27
2018-12-31T08:33:04.862Z,11.57
2018-12-31T08:35:34.548Z,11.10
2018-12-31T08:38:04.788Z,11.93
2018-12-31T08:40:35.592Z,10.70
2018-12-31T08:43:05.353Z,12.70
2018-12-31T08:45:35.173Z,11.93
2018-12-31T08:48:05.200Z,12.07
2018-12-31T08:50:34.869Z,11.50
2018-12-31T08:53:04.823Z,11.63
2018-12-31T08:55:34.476Z,11.07
2018-12-31T08:58:04.902Z,12.40
2018-12-31T09:00:34.626Z,11.37
2018-12-31T09:03:04.901Z,12.07
2018-12-31T09:05:34.549Z,12.30
2018-12-31T09:08:04.828Z,12.77
2018-12-31T09:10:34.588Z,12.37
2018-12-31T09:13:04.993Z,11.43
2018-12-31T09:15:34.659Z,12.47
2018-12-31T09:18:04.972Z,13.80
2018-12-31T09:20:34.730Z,12.43
2018-12-31T09:23:04.921Z,10.60
2018-12-31T09:25:34.678Z,12.00
2018-12-31T09:28:04.940Z,12.10
2018-12-31T09:30:34.635Z,11.67
2018-12-31T09:33:04.957Z,10.77
2018-12-31T09:35:34.837Z,11.10
2018-12-31T09:38:04.907Z,11.80
2018-12-31T09:40:34.629Z,11.80
2018-12-31T09:43:04.953Z,11.97
2018-12-31T09:45:34.667Z,11.40
2018-12-31T09:48:04.953Z,12.07
2018-12-31T09:50:34.659Z,12.13
2018-12-31T09:53:04.844Z,13.27
2018-12-31T09:55:34.767Z,11.60
2018-12-31T09:58:04.998Z,11.63
2018-12-31T10:00:34.931Z,12.30
2018-12-31T10:03:05.045Z,12.73
2018-12-31T10:05:34.666Z,12.50
2018-12-31T10:08:05.086Z,11.83
2018-12-31T10:10:34.803Z,11.87
2018-12-31T10:13:04.931Z,11.90
2018-12-31T10:15:34.613Z,12.17
2018-12-31T10:18:04.857Z,12.60
2018-12-31T10:20:34.558Z,12.37
2018-12-31T10:23:04.813Z,13.67
2018-12-31T10:25:34.593Z,13.53
2018-12-31T10:28:04.817Z,12.83
2018-12-31T10:30:34.622Z,12.13
2018-12-31T10:33:04.866Z,11.17
2018-12-31T10:35:34.653Z,11.70
2018-12-31T10:38:04.783Z,11.47
2018-12-31T10:40:34.689Z,11.00
2018-12-31T10:43:04.885Z,10.77
2018-12-31T10:45:34.616Z,11.43
2018-12-31T10:48:04.912Z,10.70
2018-12-31T10:50:34.572Z,10.47
2018-12-31T10:53:04.816Z,10.70
2018-12-31T10:55:34.510Z,11.63
2018-12-31T10:58:04.818Z,11.23
2018-12-31T11:00:35.029Z,10.60
2018-12-31T11:03:04.852Z,11.17
2018-12-31T11:05:34.461Z,11.90
2018-12-31T11:08:04.953Z,10.10
2018-12-31T11:10:34.604Z,11.20
2018-12-31T11:13:04.896Z,11.30
2018-12-31T11:15:34.520Z,10.73
2018-12-31T11:18:04.746Z,11.07
2018-12-31T11:20:34.373Z,11.30
2018-12-31T11:23:04.912Z,11.37
2018-12-31T11:25:34.614Z,10.53
2018-12-31T11:28:04.794Z,14.83
2018-12-31T11:30:34.451Z,13.37
2018-12-31T11:33:04.830Z,12.47
2018-12-31T11:35:34.540Z,12.27
2018-12-31T11:38:04.775Z,10.90
2018-12-31T11:40:34.409Z,10.30
2018-12-31T11:43:04.812Z,10.87
2018-12-31T11:45:34.508Z,10.17
2018-12-31T11:48:04.865Z,10.20
2018-12-31T11:50:34.556Z,10.53
2018-12-31T11:53:04.839Z,11.20
2018-12-31T11:55:35.497Z,9.83
2018-12-31T11:58:05.265Z,9.30
2018-12-31T12:00:35.097Z,9.83
2018-12-31T12:03:04.935Z,11.30
2018-12-31T12:05:34.589Z,10.67
2018-12-31T12:08:04.810Z,9.80
2018-12-31T12:10:34.551Z,9.20
2018-12-31T12:13:04.977Z,8.20
2018-12-31T12:15:34.678Z,9.13
2018-12-31T12:18:04.835Z,8.17
2018-12-31T12:20:34.456Z,8.50
2018-12-31T12:23:04.804Z,9.17
2018-12-31T12:25:34.475Z,8.20
2018-12-31T12:28:05.249Z,8.27
2018-12-31T12:30:35.096Z,8.13
2018-12-31T12:33:04.752Z,8.27
2018-12-31T12:35:34.441Z,8.87
2018-12-31T12:38:04.826Z,7.70
2018-12-31T12:40:34.893Z,7.87
2018-12-31T12:43:04.874Z,7.60
2018-12-31T12:45:39.892Z,8.43
2018-12-31T12:48:10.444Z,7.77
2018-12-31T12:50:40.278Z,8.30
2018-12-31T12:53:09.952Z,6.83
2018-12-31T12:55:39.623Z,6.67
2018-12-31T12:58:12.080Z,6.67
2018-12-31T13:00:42.011Z,7.10
2018-12-31T13:03:11.978Z,6.77
2018-12-31T13:05:44.358Z,7.20
2018-12-31T13:08:14.016Z,6.20
2018-12-31T13:10:43.765Z,7.20
2018-12-31T13:13:13.513Z,6.43
2018-12-31T13:15:43.141Z,6.90
2018-12-31T13:18:12.852Z,6.07
2018-12-31T13:20:42.571Z,6.63
2018-12-31T13:23:12.270Z,6.90
2018-12-31T13:25:42.264Z,6.83
2018-12-31T13:28:11.885Z,5.97
2018-12-31T13:30:41.600Z,5.93
2018-12-31T13:33:11.197Z,6.60
2018-12-31T13:35:40.808Z,6.00
2018-12-31T13:38:10.438Z,6.57
2018-12-31T13:40:40.186Z,5.90
2018-12-31T13:43:10.912Z,5.93
2018-12-31T13:45:40.622Z,5.47
2018-12-31T13:48:10.443Z,5.73
2018-12-31T13:50:40.086Z,5.27
2018-12-31T13:53:09.857Z,5.90
2018-12-31T13:55:39.507Z,5.50
2018-12-31T13:58:09.248Z,4.97
2018-12-31T14:00:39.138Z,5.37
2018-12-31T14:03:16.904Z,4.57
2018-12-31T14:05:41.242Z,5.07
2018-12-31T14:08:10.960Z,4.60
2018-12-31T14:10:40.645Z,4.40
2018-12-31T14:13:10.350Z,5.70
2018-12-31T14:15:40.004Z,4.37
2018-12-31T14:18:09.717Z,4.40
2018-12-31T14:20:39.375Z,4.43
2018-12-31T14:23:09.214Z,4.23
2018-12-31T14:25:38.907Z,5.23
2018-12-31T14:28:08.681Z,4.13
2018-12-31T14:30:38.337Z,4.57
2018-12-31T14:33:08.014Z,4.23
2018-12-31T14:35:45.584Z,4.83
2018-12-31T14:38:09.476Z,4.27
2018-12-31T14:40:39.157Z,6.10
2018-12-31T14:43:08.888Z,4.50
2018-12-31T14:45:38.538Z,5.43
2018-12-31T14:48:08.262Z,4.87
2018-12-31T14:50:37.931Z,4.57
2018-12-31T14:53:07.624Z,4.87
2018-12-31T14:55:37.346Z,4.63
2018-12-31T14:58:07.110Z,4.93
2018-12-31T15:00:36.909Z,5.37
2018-12-31T15:03:06.895Z,6.20
2018-12-31T15:05:36.533Z,7.17
2018-12-31T15:08:06.205Z,5.90
2018-12-31T15:10:36.224Z,6.43
2018-12-31T15:13:05.825Z,6.37
2018-12-31T15:15:35.460Z,6.97
2018-12-31T15:18:05.337Z,7.00
2018-12-31T15:20:34.981Z,7.07
2018-12-31T15:23:04.811Z,6.60
2018-12-31T15:25:35.445Z,7.00
2018-12-31T15:28:07.582Z,7.07
2018-12-31T15:30:56.672Z,8.00
2018-12-31T15:33:30.251Z,7.70
2018-12-31T15:35:59.945Z,8.37
2018-12-31T15:38:29.602Z,9.23
2018-12-31T15:40:59.282Z,8.03
2018-12-31T15:43:28.984Z,8.57
2018-12-31T15:45:58.626Z,8.10
2018-12-31T15:48:28.359Z,9.23
2018-12-31T15:50:59.028Z,8.53
2018-12-31T15:53:39.845Z,9.00
2018-12-31T15:56:09.587Z,9.05
2018-12-31T15:58:39.434Z,10.47
2018-12-31T16:01:09.472Z,10.03
2018-12-31T16:03:39.282Z,10.00
2018-12-31T16:06:09.948Z,8.73
2018-12-31T16:09:09.053Z,8.33
2018-12-31T16:11:40.751Z,7.97
2018-12-31T16:14:10.465Z,7.40
2018-12-31T16:16:40.174Z,7.73
2018-12-31T16:19:09.797Z,7.93
2018-12-31T16:21:39.494Z,7.90
2018-12-31T16:24:09.122Z,7.90
2018-12-31T16:26:39.713Z,7.70
2018-12-31T16:29:09.322Z,8.90
2018-12-31T16:31:38.961Z,7.73
2018-12-31T16:34:08.966Z,7.33
2018-12-31T16:36:38.657Z,7.63
2018-12-31T16:39:08.769Z,5.57
2018-12-31T16:41:38.690Z,6.13
2018-12-31T16:44:08.341Z,5.90
2018-12-31T16:46:38.379Z,5.70
2018-12-31T16:49:08.074Z,6.83
2018-12-31T16:51:37.717Z,7.60
2018-12-31T16:54:08.718Z,6.13
2018-12-31T16:56:38.400Z,6.57
2018-12-31T16:59:08.125Z,6.63
2018-12-31T17:01:37.822Z,5.97
2018-12-31T17:04:07.549Z,6.73
2018-12-31T17:06:37.266Z,7.40
2018-12-31T17:09:07.964Z,6.67
2018-12-31T17:11:37.736Z,5.27
2018-12-31T17:14:07.444Z,6.63
2018-12-31T17:16:37.073Z,5.70
2018-12-31T17:19:06.750Z,5.80
2018-12-31T17:21:36.401Z,7.10
2018-12-31T17:24:06.023Z,7.00
2018-12-31T17:26:36.041Z,7.10
2018-12-31T17:29:05.763Z,10.05
2018-12-31T17:31:35.535Z,5.00
2018-12-31T17:34:05.185Z,5.20
2018-12-31T17:36:35.051Z,5.57
2018-12-31T17:39:08.197Z,6.77
2018-12-31T17:41:38.043Z,7.03
2018-12-31T17:44:07.735Z,9.10
2018-12-31T17:46:38.007Z,6.67
2018-12-31T17:49:07.764Z,6.47
2018-12-31T17:51:37.531Z,7.30
2018-12-31T17:54:07.154Z,7.20
2018-12-31T17:56:37.070Z,6.27
2018-12-31T17:59:06.769Z,6.77
2018-12-31T18:01:36.476Z,6.40
2018-12-31T18:04:07.765Z,5.97
2018-12-31T18:06:41.358Z,6.80
2018-12-31T18:09:11.976Z,7.37
2018-12-31T18:11:41.692Z,7.37
2018-12-31T18:14:11.420Z,7.40
2018-12-31T18:16:41.300Z,7.30
2018-12-31T18:19:11.037Z,7.67
2018-12-31T18:21:40.958Z,6.73
2018-12-31T18:24:10.677Z,7.70
2018-12-31T18:26:40.321Z,7.43
2018-12-31T18:29:09.952Z,6.40
2018-12-31T18:31:39.662Z,6.53
2018-12-31T18:34:09.473Z,6.40
2018-12-31T18:36:39.154Z,6.47
2018-12-31T18:39:08.928Z,6.33
2018-12-31T18:41:38.589Z,6.47
2018-12-31T18:44:08.540Z,6.33
2018-12-31T18:46:38.199Z,6.50
2018-12-31T18:49:07.830Z,6.43
2018-12-31T18:51:37.533Z,5.73
2018-12-31T18:54:08.163Z,5.73
2018-12-31T18:56:37.874Z,6.00
2018-12-31T18:59:07.567Z,4.97
2018-12-31T19:01:37.219Z,5.70
2018-12-31T19:04:06.913Z,4.67
2018-12-31T19:06:36.639Z,5.07
2018-12-31T19:09:07.297Z,5.30
2018-12-31T19:11:36.971Z,4.83
2018-12-31T19:14:06.660Z,7.00
2018-12-31T19:16:36.294Z,4.60
2018-12-31T19:19:05.979Z,4.17
2018-12-31T19:21:36.202Z,4.30
2018-12-31T19:24:05.913Z,3.23
2018-12-31T19:26:35.556Z,4.20
2018-12-31T19:29:05.560Z,4.00
2018-12-31T19:31:35.272Z,4.17
2018-12-31T19:34:06.279Z,3.60
2018-12-31T19:36:36.145Z,3.80
2018-12-31T19:39:07.122Z,4.03
2018-12-31T19:41:36.746Z,3.77
2018-12-31T19:44:06.361Z,3.70
2018-12-31T19:46:35.976Z,4.17
2018-12-31T19:49:05.655Z,3.70
2018-12-31T19:51:35.281Z,3.70
2018-12-31T19:54:04.993Z,3.80
2018-12-31T19:56:34.798Z,4.57
2018-12-31T19:59:04.796Z,4.27
2018-12-31T20:01:34.502Z,4.37
2018-12-31T20:04:04.956Z,4.30
2018-12-31T20:06:34.979Z,4.97
2018-12-31T20:09:06.318Z,5.93
2018-12-31T20:11:36.013Z,5.77
2018-12-31T20:14:05.657Z,6.73
2018-12-31T20:16:35.355Z,6.20
2018-12-31T20:19:05.042Z,7.40
2018-12-31T20:21:35.095Z,7.20
2018-12-31T20:24:04.890Z,7.57
2018-12-31T20:26:34.602Z,6.50
2018-12-31T20:29:04.802Z,8.20
2018-12-31T20:31:34.432Z,8.57
2018-12-31T20:34:04.955Z,9.27
2018-12-31T20:36:34.855Z,10.80
2018-12-31T20:39:06.484Z,10.97
2018-12-31T20:41:36.147Z,11.57
2018-12-31T20:44:05.829Z,12.23
2018-12-31T20:46:35.470Z,12.07
2018-12-31T20:49:05.216Z,11.13
2018-12-31T20:51:35.050Z,11.47
2018-12-31T20:54:04.884Z,12.47
2018-12-31T20:56:34.675Z,12.07
2018-12-31T20:59:04.926Z,10.50
2018-12-31T21:01:35.189Z,10.63
2018-12-31T21:04:04.957Z,10.17
2018-12-31T21:06:34.676Z,8.57
2018-12-31T21:09:06.891Z,7.73
2018-12-31T21:11:37.305Z,8.50
2018-12-31T21:14:07.530Z,7.43
2018-12-31T21:16:37.198Z,7.43
2018-12-31T21:19:06.897Z,7.50
2018-12-31T21:21:36.597Z,6.73
2018-12-31T21:24:06.617Z,7.93
2018-12-31T21:26:36.226Z,7.30
2018-12-31T21:29:06.790Z,6.93
2018-12-31T21:31:36.809Z,6.83
2018-12-31T21:34:06.532Z,7.27
2018-12-31T21:36:36.614Z,7.23
2018-12-31T21:39:07.496Z,7.03
2018-12-31T21:41:37.145Z,7.80
2018-12-31T21:44:06.781Z,8.57
2018-12-31T21:46:36.408Z,8.40
2018-12-31T21:49:06.354Z,8.33
2018-12-31T21:51:35.985Z,8.40
2018-12-31T21:54:05.615Z,7.60
2018-12-31T21:56:35.329Z,8.00
2018-12-31T21:59:05.088Z,7.20
2018-12-31T22:01:34.956Z,7.27
2018-12-31T22:04:04.946Z,7.13
2018-12-31T22:06:34.555Z,6.17
2018-12-31T22:09:07.250Z,5.87
2018-12-31T22:11:37.019Z,6.80
2018-12-31T22:14:06.681Z,6.03
2018-12-31T22:16:36.359Z,6.33
2018-12-31T22:19:05.985Z,7.00
2018-12-31T22:21:35.681Z,5.67
2018-12-31T22:24:05.292Z,5.50
2018-12-31T22:26:34.885Z,4.77
2018-12-31T22:29:04.828Z,5.60
2018-12-31T22:31:34.737Z,4.80
2018-12-31T22:34:04.765Z,5.33
2018-12-31T22:36:34.453Z,5.07
2018-12-31T22:39:06.960Z,5.57
2018-12-31T22:41:36.628Z,4.17
2018-12-31T22:44:06.287Z,4.70
2018-12-31T22:46:36.059Z,4.97
2018-12-31T22:49:06.103Z,5.33
2018-12-31T22:51:35.773Z,4.70
2018-12-31T22:54:05.400Z,4.93
2018-12-31T22:56:35.100Z,4.43
2018-12-31T22:59:04.823Z,4.53
2018-12-31T23:01:34.973Z,4.27
2018-12-31T23:04:05.342Z,5.10
2018-12-31T23:06:35.462Z,28.03
2018-12-31T23:09:08.573Z,5.40
2018-12-31T23:11:38.364Z,4.93
2018-12-31T23:14:08.086Z,4.60
2018-12-31T23:16:38.117Z,6.03
2018-12-31T23:19:07.861Z,5.87
2018-12-31T23:21:37.630Z,6.13
2018-12-31T23:24:07.584Z,5.37
2018-12-31T23:26:37.273Z,5.93
2018-12-31T23:29:07.986Z,5.80
2018-12-31T23:31:37.609Z,5.60
2018-12-31T23:34:07.312Z,7.60
2018-12-31T23:36:37.555Z,7.47
2018-12-31T23:39:07.694Z,7.17
2018-12-31T23:41:37.446Z,7.47
2018-12-31T23:44:07.089Z,8.00
2018-12-31T23:46:36.833Z,9.03
2018-12-31T23:49:06.729Z,10.17
2018-12-31T23:51:36.457Z,9.37
2018-12-31T23:54:06.131Z,9.53
2018-12-31T23:56:35.833Z,8.23
2018-12-31T23:59:05.601Z,8.63
